Time;durP1;ratioP1;P1;durP2;ratioP2;P2;SDS_P1;SDS_P2;PMS_P1;PMS_P2;Temp;Humidity;BMP_temperature;BMP_pressure;BME280_temperature;BME280_humidity;BME280_pressure;Samples;Min_cycle;Max_cycle;Signal;HPM_P1;HPM_P2
2022/03/11 00:01:28;;;;;;;21.00;11.73;;;;;;;2.57;60.39;101732.38;5039598;28;20465;-71
2022/03/11 00:03:56;;;;;;;17.00;11.97;;;;;;;2.51;59.82;101730.69;5042993;28;20206;-71
2022/03/11 00:06:23;;;;;;;18.53;12.43;;;;;;;2.47;60.28;101720.25;5042079;28;20275;-71
2022/03/11 00:08:50;;;;;;;19.07;12.17;;;;;;;2.43;60.43;101729.94;5040081;28;20233;-71
2022/03/11 00:11:17;;;;;;;15.90;11.20;;;;;;;2.38;60.82;101723.84;5025779;28;20217;-71
2022/03/11 00:13:43;;;;;;;16.90;11.67;;;;;;;2.33;60.89;101728.31;5020537;28;20207;-71
2022/03/11 00:16:11;;;;;;;16.40;11.87;;;;;;;2.28;61.06;101731.00;5018145;28;20202;-71
2022/03/11 00:18:37;;;;;;;18.10;11.93;;;;;;;2.24;61.27;101725.78;5022718;28;20609;-69
2022/03/11 00:21:05;;;;;;;17.23;11.63;;;;;;;2.19;61.17;101730.22;5022575;28;20210;-71
2022/03/11 00:23:32;;;;;;;16.60;11.53;;;;;;;2.15;60.97;101728.53;5021629;28;20582;-71
2022/03/11 00:25:58;;;;;;;16.37;11.13;;;;;;;2.11;61.00;101729.44;5027386;28;20234;-71
2022/03/11 00:28:25;;;;;;;18.10;11.93;;;;;;;2.06;61.41;101722.47;5041292;28;20213;-71
2022/03/11 00:30:51;;;;;;;17.57;12.10;;;;;;;2.04;61.54;101729.50;5020625;28;20214;-72
2022/03/11 00:33:18;;;;;;;15.63;11.10;;;;;;;1.99;61.38;101728.69;5031985;28;20210;-71
2022/03/11 00:35:44;;;;;;;17.43;11.77;;;;;;;1.96;61.57;101727.88;5024786;28;20202;-70
2022/03/11 00:38:12;;;;;;;18.57;12.03;;;;;;;1.91;61.93;101725.28;5024107;28;20454;-72
2022/03/11 00:40:39;;;;;;;20.83;12.43;;;;;;;1.87;61.74;101728.81;5024732;28;20241;-70
2022/03/11 00:43:05;;;;;;;16.40;11.33;;;;;;;1.83;62.20;101732.34;5022337;28;20206;-72
2022/03/11 00:45:32;;;;;;;18.43;12.07;;;;;;;1.80;62.59;101731.50;5018866;28;20222;-71
2022/03/11 00:47:58;;;;;;;16.10;10.80;;;;;;;1.76;62.77;101728.06;5019345;28;20199;-70
2022/03/11 00:50:25;;;;;;;17.33;11.00;;;;;;;1.72;63.34;101728.97;5015858;28;20222;-71
2022/03/11 00:52:52;;;;;;;17.67;11.50;;;;;;;1.68;63.44;101733.38;5021408;28;20202;-71
2022/03/11 00:55:20;;;;;;;18.87;11.27;;;;;;;1.65;63.00;101729.91;5024425;28;20209;-70
2022/03/11 00:57:47;;;;;;;18.27;11.07;;;;;;;1.61;62.95;101731.69;5007704;28;20214;-71
2022/03/11 01:00:14;;;;;;;16.70;10.77;;;;;;;1.59;63.24;101730.00;5007185;28;20243;-70
2022/03/11 01:02:41;;;;;;;21.43;12.30;;;;;;;1.54;63.07;101726.53;5003214;28;20297;-70
2022/03/11 01:05:09;;;;;;;16.87;10.87;;;;;;;1.52;63.23;101720.41;5002367;28;20592;-70
2022/03/11 01:07:35;;;;;;;17.27;11.73;;;;;;;1.49;63.18;101721.31;5007446;28;20208;-71
2022/03/11 01:10:03;;;;;;;17.27;12.07;;;;;;;1.47;63.22;101723.06;5001843;28;20602;-71
2022/03/11 01:12:31;;;;;;;16.70;11.97;;;;;;;1.43;63.61;101728.38;5004835;28;20203;-70
2022/03/11 01:14:57;;;;;;;16.97;11.87;;;;;;;1.38;63.41;101721.41;5008615;28;20213;-70
2022/03/11 01:17:24;;;;;;;18.80;11.27;;;;;;;1.36;63.43;101717.06;5013098;28;20222;-73
2022/03/11 01:19:50;;;;;;;17.20;11.77;;;;;;;1.34;63.79;101724.06;5006058;28;20238;-71
2022/03/11 01:22:17;;;;;;;18.93;11.30;;;;;;;1.31;64.05;101711.84;5006777;28;20217;-70
2022/03/11 01:24:43;;;;;;;16.47;11.73;;;;;;;1.28;64.19;101709.25;5004457;28;20212;-68
2022/03/11 01:27:10;;;;;;;17.77;11.27;;;;;;;1.25;63.80;101718.91;5000979;28;20289;-70
2022/03/11 01:29:38;;;;;;;18.03;11.47;;;;;;;1.20;64.39;101713.69;5009637;28;20631;-72
2022/03/11 01:32:05;;;;;;;20.73;11.27;;;;;;;1.16;64.64;101713.72;5011478;28;20581;-68
2022/03/11 01:34:31;;;;;;;19.53;11.37;;;;;;;1.13;64.70;101700.63;5012432;28;20215;-72
2022/03/11 01:36:58;;;;;;;17.83;11.67;;;;;;;1.10;64.61;101703.25;5009244;28;20585;-70
2022/03/11 01:39:24;;;;;;;16.37;10.97;;;;;;;1.07;65.28;101703.31;5004633;28;20225;-70
2022/03/11 01:41:52;;;;;;;21.07;12.30;;;;;;;1.05;65.15;101700.72;5008380;28;20211;-71
2022/03/11 01:44:18;;;;;;;18.17;11.33;;;;;;;1.01;64.91;101705.09;5007350;28;20684;-70
2022/03/11 01:46:46;;;;;;;16.20;11.07;;;;;;;0.99;64.95;101705.97;5009810;28;20241;-70
2022/03/11 01:49:13;;;;;;;16.27;11.03;;;;;;;0.95;65.20;101696.38;5006462;28;20249;-71
2022/03/11 01:51:42;;;;;;;18.27;11.50;;;;;;;0.91;65.16;101700.78;5012550;28;20210;-70
2022/03/11 01:54:09;;;;;;;18.40;10.80;;;;;;;0.87;65.83;101692.97;5004988;28;20203;-71
2022/03/11 01:56:37;;;;;;;17.07;11.27;;;;;;;0.82;65.92;101693.00;5008486;28;20203;-73
2022/03/11 01:59:04;;;;;;;17.97;11.13;;;;;;;0.78;65.75;101688.63;5004942;28;20234;-71
2022/03/11 02:01:31;;;;;;;16.53;10.70;;;;;;;0.74;65.63;101689.53;5002594;28;20222;-72
2022/03/11 02:03:59;;;;;;;17.83;10.97;;;;;;;0.69;66.14;101683.47;5008101;28;20203;-71
2022/03/11 02:06:27;;;;;;;20.63;11.83;;;;;;;0.65;66.22;101687.00;5004989;28;20226;-70
2022/03/11 02:08:54;;;;;;;17.27;10.77;;;;;;;0.61;66.19;101685.25;5007079;28;20231;-73
2022/03/11 02:11:21;;;;;;;15.07;10.23;;;;;;;0.56;66.33;101687.91;5007468;28;20294;-71
2022/03/11 02:13:50;;;;;;;16.80;11.33;;;;;;;0.51;66.43;101675.72;5005136;28;20789;-70
2022/03/11 02:16:19;;;;;;;18.20;10.30;;;;;;;0.49;66.53;101680.09;5008870;28;20195;-69
2022/03/11 02:18:46;;;;;;;16.30;10.63;;;;;;;0.44;66.57;101681.88;5001809;28;20222;-70
2022/03/11 02:21:16;;;;;;;15.83;10.60;;;;;;;0.39;66.77;101684.50;5007288;28;20302;-71
2022/03/11 02:23:46;;;;;;;17.30;11.13;;;;;;;0.33;66.93;101685.41;5008027;28;20210;-70
2022/03/11 02:26:13;;;;;;;19.17;10.37;;;;;;;0.31;66.82;101684.56;5010041;28;20227;-70
2022/03/11 02:28:40;;;;;;;17.27;11.30;;;;;;;0.29;67.01;101680.19;5002169;28;20232;-70
2022/03/11 02:31:06;;;;;;;17.33;10.90;;;;;;;0.27;67.13;101684.56;5004439;28;20207;-70
2022/03/11 02:33:33;;;;;;;17.67;11.20;;;;;;;0.25;67.38;101691.56;5006425;28;20203;-72
2022/03/11 02:36:00;;;;;;;16.70;10.97;;;;;;;0.25;67.61;101691.56;5005713;28;20581;-70
2022/03/11 02:38:26;;;;;;;16.97;11.63;;;;;;;0.22;66.79;101687.19;5005670;28;20718;-70
2022/03/11 02:40:55;;;;;;;18.73;11.10;;;;;;;0.21;67.25;101689.81;5006472;28;20213;-70
2022/03/11 02:43:21;;;;;;;19.33;11.17;;;;;;;0.18;67.31;101690.69;5009442;28;20207;-70
2022/03/11 02:45:48;;;;;;;18.57;12.27;;;;;;;0.18;67.37;101689.88;5010376;28;20218;-72
2022/03/11 02:48:14;;;;;;;20.50;12.33;;;;;;;0.16;67.53;101696.84;5010480;28;20211;-71
2022/03/11 02:50:41;;;;;;;20.93;12.43;;;;;;;0.12;67.49;101687.25;5010817;28;20211;-70
2022/03/11 02:53:07;;;;;;;17.60;11.43;;;;;;;0.09;67.63;101688.13;5005123;28;20656;-70
2022/03/11 02:55:34;;;;;;;18.30;11.80;;;;;;;0.08;67.78;101690.75;5004226;28;20223;-72
2022/03/11 02:58:02;;;;;;;17.83;12.20;;;;;;;0.06;67.99;101689.88;5005530;28;20219;-70
2022/03/11 03:00:28;;;;;;;18.40;11.20;;;;;;;0.04;67.72;101681.16;5000317;28;20476;-71
2022/03/11 03:02:55;;;;;;;16.67;11.13;;;;;;;-0.01;67.81;101679.47;5000980;28;20583;-71
2022/03/11 03:05:22;;;;;;;18.00;11.67;;;;;;;-0.03;67.86;101675.97;5008544;28;20202;-70
2022/03/11 03:07:48;;;;;;;18.10;10.87;;;;;;;-0.05;68.06;101671.63;5005042;28;20206;-69
2022/03/11 03:10:15;;;;;;;18.57;11.30;;;;;;;-0.09;68.10;101670.75;5005571;28;20230;-70
2022/03/11 03:12:42;;;;;;;19.47;11.80;;;;;;;-0.11;67.96;101662.03;5014960;28;20203;-70
2022/03/11 03:15:10;;;;;;;18.57;12.27;;;;;;;-0.15;68.43;101662.91;5003113;28;20214;-69
2022/03/11 03:17:37;;;;;;;17.37;12.03;;;;;;;-0.16;68.43;101668.13;5003863;28;20234;-70
2022/03/11 03:20:05;;;;;;;19.03;12.03;;;;;;;-0.19;68.45;101658.56;5001982;28;20241;-70
2022/03/11 03:22:32;;;;;;;16.10;11.13;;;;;;;-0.21;68.54;101668.19;5000675;28;20203;-72
2022/03/11 03:24:58;;;;;;;17.73;11.37;;;;;;;-0.22;68.33;101661.19;5004635;28;20688;-72
2022/03/11 03:27:25;;;;;;;18.67;11.70;;;;;;;-0.24;68.71;101664.69;5006813;28;20226;-70
2022/03/11 03:29:52;;;;;;;19.97;11.00;;;;;;;-0.27;68.77;101662.94;5002888;28;20349;-71
2022/03/11 03:32:20;;;;;;;16.30;10.97;;;;;;;-0.28;68.89;101658.59;5008368;28;20203;-71
2022/03/11 03:34:46;;;;;;;17.90;11.37;;;;;;;-0.31;68.59;101660.34;5006597;28;20203;-70
2022/03/11 03:37:13;;;;;;;17.50;10.63;;;;;;;-0.33;68.96;101670.81;5004613;28;20203;-68
2022/03/11 03:39:41;;;;;;;17.67;11.07;;;;;;;-0.37;69.05;101663.88;5010656;28;20230;-72
2022/03/11 03:42:09;;;;;;;17.73;10.93;;;;;;;-0.41;68.92;101665.59;4995418;28;20217;-73
2022/03/11 03:44:36;;;;;;;18.27;10.70;;;;;;;-0.44;68.75;101665.59;5005296;28;20206;-72
2022/03/11 03:47:04;;;;;;;17.83;10.57;;;;;;;-0.45;68.83;101665.63;5008601;28;20235;-71
2022/03/11 03:49:32;;;;;;;18.17;10.97;;;;;;;-0.48;68.76;101657.75;5007236;28;20250;-73
2022/03/11 03:51:58;;;;;;;13.63;9.23;;;;;;;-0.49;68.88;101656.00;5007507;28;20206;-72
2022/03/11 03:54:25;;;;;;;18.17;10.63;;;;;;;-0.54;68.67;101656.06;5004957;28;20222;-70
2022/03/11 03:56:51;;;;;;;14.83;9.87;;;;;;;-0.59;68.84;101657.78;5007607;28;20231;-70
2022/03/11 03:59:18;;;;;;;18.30;10.17;;;;;;;-0.60;68.80;101648.19;5010397;28;20230;-70
2022/03/11 04:01:45;;;;;;;15.20;9.93;;;;;;;-0.60;68.73;101644.72;5004911;28;20226;-71
2022/03/11 04:04:12;;;;;;;13.53;8.77;;;;;;;-0.62;68.89;101641.22;5007007;28;20238;-70
2022/03/11 04:06:42;;;;;;;15.33;9.87;;;;;;;-0.66;68.85;101639.47;4999555;28;20227;-68
2022/03/11 04:09:09;;;;;;;18.80;10.23;;;;;;;-0.68;68.93;101636.88;5007034;28;20314;-70
2022/03/11 04:11:36;;;;;;;15.63;9.07;;;;;;;-0.68;69.00;101636.00;5001799;28;20207;-71
2022/03/11 04:14:03;;;;;;;16.03;9.60;;;;;;;-0.70;69.00;101636.88;5001001;28;20214;-70
2022/03/11 04:16:30;;;;;;;15.80;10.37;;;;;;;-0.71;68.94;101632.50;5006615;28;20207;-70
2022/03/11 04:18:57;;;;;;;15.37;8.87;;;;;;;-0.73;69.15;101634.28;5006014;28;20269;-71
2022/03/11 04:21:23;;;;;;;16.23;9.93;;;;;;;-0.74;69.00;101627.31;5006305;28;20213;-70
2022/03/11 04:23:51;;;;;;;15.53;9.33;;;;;;;-0.75;69.02;101622.94;5004516;28;20202;-70
2022/03/11 04:26:19;;;;;;;16.90;9.83;;;;;;;-0.75;69.00;101624.69;5007816;28;20223;-70
2022/03/11 04:28:45;;;;;;;16.93;9.93;;;;;;;-0.76;69.06;101623.81;5008674;28;20222;-71
2022/03/11 04:31:13;;;;;;;16.63;8.80;;;;;;;-0.77;69.10;101627.31;5003453;28;20215;-70
2022/03/11 04:33:41;;;;;;;18.07;10.27;;;;;;;-0.77;69.35;101627.31;5009327;28;20210;-69
2022/03/11 04:36:09;;;;;;;14.40;9.43;;;;;;;-0.80;69.00;101621.19;5006155;28;20203;-70
2022/03/11 04:38:36;;;;;;;16.40;10.20;;;;;;;-0.82;68.85;101612.47;5010339;28;20630;-72
2022/03/11 04:41:04;;;;;;;17.47;10.67;;;;;;;-0.84;69.04;101617.72;5005044;28;20211;-70
2022/03/11 04:43:30;;;;;;;15.43;9.47;;;;;;;-0.87;69.26;101609.84;5000339;28;20211;-70
2022/03/11 04:45:57;;;;;;;16.67;9.97;;;;;;;-0.87;69.14;101609.00;5006480;28;20310;-69
2022/03/11 04:48:24;;;;;;;15.83;9.80;;;;;;;-0.89;69.15;101613.34;5001690;28;20203;-69
2022/03/11 04:50:50;;;;;;;15.87;9.63;;;;;;;-0.93;68.75;101598.56;5003133;28;20444;-69
2022/03/11 04:53:17;;;;;;;16.20;10.03;;;;;;;-0.96;69.12;101593.31;5003299;28;20246;-72
2022/03/11 04:55:43;;;;;;;15.27;9.77;;;;;;;-1.00;69.17;101595.06;4994948;28;20213;-70
2022/03/11 04:58:11;;;;;;;16.37;10.13;;;;;;;-1.03;69.33;101595.06;5004023;28;20200;-70
2022/03/11 05:00:38;;;;;;;16.57;9.83;;;;;;;-1.05;68.83;101588.97;5012808;28;20720;-72
2022/03/11 05:03:04;;;;;;;16.13;9.83;;;;;;;-1.08;68.99;101599.44;5010110;28;20202;-71
2022/03/11 05:05:31;;;;;;;13.13;8.67;;;;;;;-1.11;69.08;101595.09;5013811;28;20203;-71
2022/03/11 05:07:58;;;;;;;13.80;8.83;;;;;;;-1.12;68.79;101597.69;5011008;28;20230;-72
2022/03/11 05:10:24;;;;;;;14.57;8.23;;;;;;;-1.16;69.29;101596.81;5015792;28;20813;-70
2022/03/11 05:12:50;;;;;;;14.70;9.33;;;;;;;-1.19;69.09;101595.94;5001593;28;20214;-70
2022/03/11 05:15:19;;;;;;;18.50;10.83;;;;;;;-1.23;69.19;101599.44;5001577;28;20683;-70
2022/03/11 05:17:46;;;;;;;15.73;9.80;;;;;;;-1.27;68.80;101600.31;5003330;28;20704;-70
2022/03/11 05:20:13;;;;;;;16.03;9.87;;;;;;;-1.31;69.36;101598.56;5009939;28;20240;-70
2022/03/11 05:22:41;;;;;;;14.63;9.63;;;;;;;-1.34;69.08;101606.41;5013547;28;20660;-70
2022/03/11 05:25:08;;;;;;;16.00;10.10;;;;;;;-1.37;69.38;101606.41;5009324;28;20593;-69
2022/03/11 05:27:35;;;;;;;14.10;8.77;;;;;;;-1.40;69.65;101612.50;5007621;28;20231;-69
2022/03/11 05:30:02;;;;;;;14.47;9.23;;;;;;;-1.44;69.17;101601.19;5004001;28;20224;-70
2022/03/11 05:32:30;;;;;;;13.67;8.53;;;;;;;-1.44;69.50;101608.16;5006682;28;20213;-70
2022/03/11 05:34:56;;;;;;;12.50;9.13;;;;;;;-1.47;69.61;101614.25;5002832;28;20568;-70
2022/03/11 05:37:23;;;;;;;13.57;9.13;;;;;;;-1.47;69.52;101615.97;5005176;28;20207;-69
2022/03/11 05:39:49;;;;;;;13.50;8.97;;;;;;;-1.51;69.55;101609.88;5002825;28;20223;-69
2022/03/11 05:42:16;;;;;;;17.20;9.10;;;;;;;-1.53;69.55;101606.38;4998211;28;20202;-69
2022/03/11 05:44:42;;;;;;;13.37;8.73;;;;;;;-1.58;69.56;101608.09;4997767;28;20208;-72
2022/03/11 05:47:09;;;;;;;13.10;8.37;;;;;;;-1.60;69.53;101609.84;5000692;28;20234;-70
2022/03/11 05:49:37;;;;;;;12.63;9.03;;;;;;;-1.63;69.59;101617.72;4996363;28;20231;-69
2022/03/11 05:52:04;;;;;;;13.13;8.40;;;;;;;-1.66;70.31;101614.22;4999657;28;20206;-70
2022/03/11 05:54:30;;;;;;;14.23;9.07;;;;;;;-1.66;70.01;101620.31;4999847;28;20596;-73
2022/03/11 05:56:57;;;;;;;13.53;8.70;;;;;;;-1.69;70.31;101607.25;4994378;28;20200;-71
2022/03/11 05:59:23;;;;;;;15.23;8.93;;;;;;;-1.70;69.97;101615.94;5016785;22;20655;-70
2022/03/11 06:01:50;;;;;;;16.17;9.67;;;;;;;-1.72;70.36;101606.34;5030017;28;20206;-69
2022/03/11 06:04:17;;;;;;;17.63;9.57;;;;;;;-1.73;70.15;101617.66;5026435;28;20202;-69
2022/03/11 06:06:44;;;;;;;13.53;8.87;;;;;;;-1.75;70.04;101621.13;5029264;28;20725;-70
2022/03/11 06:09:11;;;;;;;13.33;9.07;;;;;;;-1.76;70.06;101618.53;5015669;28;20222;-70
2022/03/11 06:11:37;;;;;;;12.97;8.33;;;;;;;-1.75;70.24;101613.31;5016925;28;20211;-69
2022/03/11 06:14:04;;;;;;;13.00;8.83;;;;;;;-1.75;70.38;101615.03;5015411;28;20211;-70
2022/03/11 06:16:31;;;;;;;13.17;8.57;;;;;;;-1.77;70.39;101617.66;5012056;28;20210;-70
2022/03/11 06:18:57;;;;;;;14.60;8.90;;;;;;;-1.77;70.58;101627.22;5022306;28;20206;-70
2022/03/11 06:21:24;;;;;;;13.30;8.43;;;;;;;-1.77;70.53;101628.09;5021945;28;20225;-72
2022/03/11 06:23:53;;;;;;;16.70;9.80;;;;;;;-1.76;71.00;101636.81;5025503;28;20210;-69
2022/03/11 06:26:19;;;;;;;13.17;9.60;;;;;;;-1.77;70.88;101637.66;5023254;28;20286;-70
2022/03/11 06:28:46;;;;;;;14.47;9.33;;;;;;;-1.76;71.07;101632.44;5018198;28;20219;-69
2022/03/11 06:31:12;;;;;;;15.00;8.73;;;;;;;-1.76;71.04;101632.44;5022873;28;20679;-70
2022/03/11 06:33:39;;;;;;;14.87;9.23;;;;;;;-1.76;71.36;101629.84;5020422;28;20596;-70
2022/03/11 06:36:06;;;;;;;14.97;8.90;;;;;;;-1.74;71.34;101632.47;5020961;28;20644;-69
2022/03/11 06:38:33;;;;;;;14.13;9.13;;;;;;;-1.71;70.78;101640.31;5023262;28;20198;-69
2022/03/11 06:41:01;;;;;;;14.13;8.70;;;;;;;-1.70;71.05;101630.72;5016788;28;20599;-69
2022/03/11 06:43:28;;;;;;;16.93;9.33;;;;;;;-1.67;71.32;101646.41;5014878;28;20200;-70
2022/03/11 06:45:55;;;;;;;13.40;9.33;;;;;;;-1.66;71.48;101646.41;5012530;28;20210;-70
2022/03/11 06:48:21;;;;;;;15.97;8.77;;;;;;;-1.62;71.45;101642.97;5021138;28;20221;-70
2022/03/11 06:50:48;;;;;;;17.33;9.67;;;;;;;-1.61;71.57;101641.22;5023855;28;20218;-69
2022/03/11 06:53:15;;;;;;;18.17;9.43;;;;;;;-1.57;71.69;101645.56;5019305;28;20220;-70
2022/03/11 06:55:41;;;;;;;13.73;8.77;;;;;;;-1.55;71.65;101639.47;5013569;28;20309;-70
2022/03/11 06:58:09;;;;;;;14.23;8.93;;;;;;;-1.53;71.53;101640.34;5011906;28;20213;-70
2022/03/11 07:00:35;;;;;;;17.17;10.07;;;;;;;-1.50;72.00;101635.13;5018448;28;20231;-70
2022/03/11 07:03:02;;;;;;;11.77;8.33;;;;;;;-1.47;72.04;101637.75;5015618;28;20199;-70
2022/03/11 07:05:29;;;;;;;14.87;8.53;;;;;;;-1.44;71.63;101635.16;5015079;28;20214;-70
2022/03/11 07:07:56;;;;;;;13.20;8.33;;;;;;;-1.41;71.66;101635.13;5017100;28;20736;-69
2022/03/11 07:10:22;;;;;;;15.37;9.37;;;;;;;-1.32;71.55;101636.03;5020092;28;20230;-71
2022/03/11 07:12:49;;;;;;;12.57;8.33;;;;;;;-1.25;71.56;101632.53;5017238;28;20678;-70
2022/03/11 07:15:17;;;;;;;14.83;9.13;;;;;;;-1.19;71.94;101636.03;5016493;28;20217;-70
2022/03/11 07:17:46;;;;;;;13.93;9.07;;;;;;;-1.11;71.72;101623.84;5015934;28;20203;-70
2022/03/11 07:20:13;;;;;;;12.43;7.40;;;;;;;-1.04;71.60;101627.31;5016586;28;20234;-70
2022/03/11 07:22:39;;;;;;;13.03;8.13;;;;;;;-0.98;71.08;101631.69;5015327;28;20703;-70
2022/03/11 07:25:07;;;;;;;18.07;8.70;;;;;;;-0.89;71.19;101636.88;5014909;28;20217;-70
2022/03/11 07:27:33;;;;;;;14.77;7.90;;;;;;;-0.82;70.86;101633.41;5014811;28;20530;-70
2022/03/11 07:30:00;;;;;;;14.23;9.30;;;;;;;-0.77;70.51;101636.88;5017678;28;20229;-70
2022/03/11 07:32:28;;;;;;;13.20;7.80;;;;;;;-0.72;69.70;101636.00;5018968;28;20207;-70
2022/03/11 07:34:54;;;;;;;12.97;8.40;;;;;;;-0.64;69.74;101632.50;5010473;28;20218;-70
2022/03/11 07:37:21;;;;;;;13.90;8.17;;;;;;;-0.57;69.05;101634.25;5024304;28;20209;-69
2022/03/11 07:39:47;;;;;;;16.30;8.87;;;;;;;-0.49;68.86;101638.56;5025914;28;20232;-70
2022/03/11 07:42:14;;;;;;;14.07;7.60;;;;;;;-0.42;68.51;101645.53;5020640;28;20226;-70
2022/03/11 07:44:42;;;;;;;11.20;7.43;;;;;;;-0.34;68.22;101637.66;5016641;28;20214;-70
2022/03/11 07:47:08;;;;;;;13.73;8.50;;;;;;;-0.25;68.09;101631.53;5014179;28;20226;-70
2022/03/11 07:49:36;;;;;;;12.80;8.17;;;;;;;-0.15;67.76;101635.84;5015310;28;20241;-70
2022/03/11 07:52:03;;;;;;;11.03;7.43;;;;;;;-0.05;67.86;101629.72;5013998;28;20206;-70
2022/03/11 07:54:30;;;;;;;10.83;7.00;;;;;;;0.06;67.41;101627.91;5017126;28;20209;-70
2022/03/11 07:56:56;;;;;;;14.00;7.63;;;;;;;0.16;66.88;101628.75;5017900;28;20561;-69
2022/03/11 07:59:23;;;;;;;11.90;6.73;;;;;;;0.27;66.50;101625.19;5022496;28;20353;-70
2022/03/11 08:01:49;;;;;;;11.93;8.13;;;;;;;0.40;66.08;101623.34;5016302;28;20213;-70
2022/03/11 08:04:16;;;;;;;12.57;7.73;;;;;;;0.53;65.95;101624.16;5018276;28;20210;-68
2022/03/11 08:06:45;;;;;;;12.23;7.13;;;;;;;0.66;64.85;101613.56;5019324;28;20225;-70
2022/03/11 08:09:12;;;;;;;11.63;7.53;;;;;;;0.82;64.34;101608.22;5019864;28;20231;-71
2022/03/11 08:11:38;;;;;;;12.20;7.90;;;;;;;0.96;64.11;101614.19;5023697;28;20198;-70
2022/03/11 08:14:05;;;;;;;9.40;6.70;;;;;;;1.12;63.49;101607.94;5026082;28;20677;-70
2022/03/11 08:16:32;;;;;;;9.80;6.83;;;;;;;1.29;63.18;101608.63;5015530;28;20676;-71
2022/03/11 08:18:59;;;;;;;10.73;6.93;;;;;;;1.45;62.19;101604.09;5015943;28;20200;-70
2022/03/11 08:21:25;;;;;;;11.53;8.03;;;;;;;1.57;61.04;101603.13;5019090;28;20203;-69
2022/03/11 08:23:53;;;;;;;12.07;7.90;;;;;;;1.66;60.92;101609.09;5020805;28;20199;-69
2022/03/11 08:26:20;;;;;;;12.87;7.20;;;;;;;1.78;59.61;101602.88;5024275;28;20210;-70
2022/03/11 08:28:46;;;;;;;8.33;6.40;;;;;;;1.88;59.64;101599.22;5016237;28;20245;-69
2022/03/11 08:31:14;;;;;;;10.40;7.57;;;;;;;1.98;58.65;101595.56;5019791;28;20202;-70
2022/03/11 08:33:40;;;;;;;11.03;7.10;;;;;;;2.06;57.83;101592.88;5019886;28;20295;-69
2022/03/11 08:36:07;;;;;;;10.13;7.27;;;;;;;2.17;57.80;101596.19;5019113;28;21671;-70
2022/03/11 08:38:34;;;;;;;8.37;6.33;;;;;;;2.27;56.84;101597.84;5017689;28;20203;-69
2022/03/11 08:41:04;;;;;;;11.87;7.60;;;;;;;2.39;56.57;101596.78;5021562;28;20218;-70
2022/03/11 08:43:31;;;;;;;12.40;7.60;;;;;;;2.52;55.88;101593.06;5018526;28;20257;-70
2022/03/11 08:45:57;;;;;;;10.37;6.63;;;;;;;2.68;55.84;101589.31;5020551;28;20207;-70
2022/03/11 08:48:24;;;;;;;9.80;6.93;;;;;;;2.85;55.42;101586.41;5022861;28;20710;-69
2022/03/11 08:50:50;;;;;;;12.20;6.83;;;;;;;3.02;55.22;101583.50;5023190;28;20267;-71
2022/03/11 08:53:19;;;;;;;9.77;6.60;;;;;;;3.16;53.27;101586.75;5020216;28;20218;-70
2022/03/11 08:55:45;;;;;;;11.37;7.10;;;;;;;3.24;52.00;101576.06;5020533;28;20199;-70
2022/03/11 08:58:13;;;;;;;10.07;6.57;;;;;;;3.35;51.84;101571.47;5024897;28;20220;-70
2022/03/11 09:00:41;;;;;;;11.93;7.13;;;;;;;3.50;51.77;101576.44;5022747;28;20226;-70
2022/03/11 09:03:07;;;;;;;10.20;7.10;;;;;;;3.68;52.04;101578.72;5019891;28;20769;-71
2022/03/11 09:05:34;;;;;;;12.83;7.20;;;;;;;3.78;50.62;101585.53;5019728;28;20202;-70
2022/03/11 09:08:01;;;;;;;12.20;7.50;;;;;;;3.84;50.10;101574.00;5018160;28;20227;-70
2022/03/11 09:10:27;;;;;;;10.37;7.20;;;;;;;3.86;48.95;101573.97;5017067;28;20227;-70
2022/03/11 09:12:54;;;;;;;9.60;6.43;;;;;;;3.94;48.92;101570.25;5032242;28;20264;-70
2022/03/11 09:15:22;;;;;;;8.17;5.83;;;;;;;3.97;48.17;101569.31;5029759;28;20213;-69
2022/03/11 09:17:49;;;;;;;10.40;6.60;;;;;;;4.04;48.49;101568.31;5036974;28;20209;-71
2022/03/11 09:20:15;;;;;;;11.27;7.30;;;;;;;4.14;48.78;101557.50;5038414;28;20222;-73
2022/03/11 09:22:42;;;;;;;10.93;6.27;;;;;;;4.27;48.54;101555.50;5020937;28;20207;-71
2022/03/11 09:25:10;;;;;;;9.80;5.93;;;;;;;4.41;47.93;101555.16;5023577;28;20277;-72
2022/03/11 09:27:37;;;;;;;8.73;5.77;;;;;;;4.56;47.35;101551.28;5011670;28;20294;-73
2022/03/11 09:30:05;;;;;;;8.13;5.97;;;;;;;4.71;46.97;101550.91;5012607;28;20318;-72
2022/03/11 09:32:34;;;;;;;9.37;6.10;;;;;;;4.84;46.67;101552.31;5019150;28;20586;-70
2022/03/11 09:35:00;;;;;;;9.63;6.27;;;;;;;4.98;46.15;101549.34;5015006;28;20206;-72
2022/03/11 09:37:27;;;;;;;8.80;5.80;;;;;;;5.12;46.15;101552.50;5034204;28;20674;-71
2022/03/11 09:39:54;;;;;;;9.53;5.90;;;;;;;5.24;45.61;101546.88;5021251;28;20218;-72
2022/03/11 09:42:20;;;;;;;7.67;6.03;;;;;;;5.36;45.51;101546.56;5017983;28;20198;-71
2022/03/11 09:44:51;;;;;;;9.57;6.63;;;;;;;5.45;45.15;101538.38;5019649;28;20614;-71
2022/03/11 09:47:19;;;;;;;11.23;5.90;;;;;;;5.51;44.19;101540.84;5017542;28;20245;-71
2022/03/11 09:49:47;;;;;;;8.23;5.53;;;;;;;5.62;44.26;101537.00;5018399;28;20226;-71
2022/03/11 09:52:15;;;;;;;7.93;5.73;;;;;;;5.70;43.17;101529.75;5019722;28;20227;-71
2022/03/11 09:54:41;;;;;;;8.67;5.47;;;;;;;5.76;43.00;101532.19;5029750;28;20206;-72
2022/03/11 09:57:08;;;;;;;7.50;5.20;;;;;;;5.80;42.49;101528.56;5016905;28;20225;-72
2022/03/11 09:59:35;;;;;;;8.77;5.83;;;;;;;5.84;42.23;101527.56;5017779;28;20235;-73
2022/03/11 10:02:02;;;;;;;7.47;5.50;;;;;;;5.93;42.75;101528.16;5014503;28;20203;-72
2022/03/11 10:04:28;;;;;;;8.70;6.40;;;;;;;6.05;41.94;101521.66;5022311;28;20593;-72
2022/03/11 10:06:56;;;;;;;7.37;5.10;;;;;;;6.14;41.59;101520.50;5011434;28;20199;-72
2022/03/11 10:09:33;;;;;;;8.33;5.60;;;;;;;6.20;41.21;101512.38;5014804;28;20226;-72
2022/03/11 10:12:05;;;;;;;7.53;5.57;;;;;;;6.23;41.51;101518.44;5015885;28;20293;-72
2022/03/11 10:14:33;;;;;;;10.40;5.83;;;;;;;6.25;40.58;101513.09;5016850;28;20217;-72
2022/03/11 10:17:00;;;;;;;8.93;5.80;;;;;;;6.27;41.09;101509.47;5017967;28;20206;-71
2022/03/11 10:19:27;;;;;;;10.37;5.47;;;;;;;6.31;41.19;101517.31;5010992;28;20229;-71
2022/03/11 10:21:59;;;;;;;7.43;5.03;;;;;;;6.40;41.07;101522.31;5014563;28;20214;-71
2022/03/11 10:24:26;;;;;;;7.70;5.40;;;;;;;6.46;40.08;101508.88;5015233;28;20225;-71
2022/03/11 10:26:55;;;;;;;9.90;5.83;;;;;;;6.52;40.36;101503.41;5015430;28;20210;-72
2022/03/11 10:29:23;;;;;;;9.73;5.83;;;;;;;6.57;40.41;101506.75;5017540;28;20231;-71
2022/03/11 10:31:52;;;;;;;8.40;5.93;;;;;;;6.65;40.32;101503.84;5019725;28;20221;-72
2022/03/11 10:34:22;;;;;;;9.07;5.77;;;;;;;6.74;40.29;101499.13;5014076;28;20206;-72
2022/03/11 10:36:51;;;;;;;10.67;5.90;;;;;;;6.77;39.80;101500.81;5038814;28;20216;-71
2022/03/11 10:39:21;;;;;;;10.10;6.03;;;;;;;6.81;39.45;101486.50;5017920;28;20233;-72
2022/03/11 10:41:50;;;;;;;8.33;5.67;;;;;;;6.82;38.79;101489.13;5023978;28;20709;-72
2022/03/11 10:44:19;;;;;;;7.60;5.77;;;;;;;6.83;39.54;101480.25;5036962;28;20656;-72
2022/03/11 10:46:45;;;;;;;8.83;6.47;;;;;;;6.86;39.14;101482.81;5024026;28;20229;-72
2022/03/11 10:49:12;;;;;;;8.07;4.90;;;;;;;6.89;38.57;101488.00;5020022;28;20238;-72
2022/03/11 10:51:39;;;;;;;9.13;5.47;;;;;;;6.93;38.82;101481.69;5022608;28;20253;-73
2022/03/11 10:54:07;;;;;;;9.40;6.27;;;;;;;6.93;38.52;101484.34;5015586;28;20214;-72
2022/03/11 10:56:39;;;;;;;10.10;5.60;;;;;;;6.97;38.61;101472.72;5014935;28;20215;-72
2022/03/11 10:59:06;;;;;;;9.50;5.43;;;;;;;6.99;38.04;101475.28;5013193;28;20302;-73
2022/03/11 11:01:37;;;;;;;8.40;6.03;;;;;;;7.01;38.48;101472.59;5011439;28;20861;-72
2022/03/11 11:04:07;;;;;;;9.17;5.90;;;;;;;7.02;38.38;101467.22;5015918;28;20202;-72
2022/03/11 11:06:34;;;;;;;10.13;4.57;;;;;;;7.07;38.58;101467.94;5012522;28;20294;-74
2022/03/11 11:09:01;;;;;;;7.50;5.13;;;;;;;7.10;38.41;101469.63;5014577;28;20250;-72
2022/03/11 11:11:30;;;;;;;9.20;6.27;;;;;;;7.11;37.85;101458.09;5009550;28;20219;-72
2022/03/11 11:13:59;;;;;;;9.03;5.90;;;;;;;7.15;38.09;101452.66;5018084;28;20199;-71
2022/03/11 11:16:27;;;;;;;8.60;5.80;;;;;;;7.21;38.50;101439.16;5015172;28;20680;-72
2022/03/11 11:18:58;;;;;;;8.33;5.93;;;;;;;7.24;37.75;101439.06;5016662;28;20682;-74